Terminal Aerodrome Forecast
Issued by NWS Twin Cities, MN

Home | Current Version | Previous Version | Text Only | Print | Product List | Glossary Off
Versions: 1 2 3 4 5 6 7 8 9 10 11 12 13 14

000
FTUS43 KMPX 271123
TAFSTC
TAF
KSTC 271123Z 2712/2812 00000KT P6SM SKC
     FM271900 18006KT P6SM SCT150
     FM280000 16006KT P6SM OVC100
     FM280500 VRB03KT P6SM SCT100=

USA.gov is the U.S. government's official web portal to all federal, state and local government web resources and services.